sensor_id;sensor_type;location;lat;lon;timestamp;pressure;altitude;pressure_sealevel;temperature;humidity
19600;BME280;9947;57.722;12.012;2023-02-16T00:02:03;101337.72;;;2.72;100.00
19600;BME280;9947;57.722;12.012;2023-02-16T00:04:30;101327.97;;;2.71;100.00
19600;BME280;9947;57.722;12.012;2023-02-16T00:07:04;101326.06;;;2.75;100.00
19600;BME280;9947;57.722;12.012;2023-02-16T00:09:31;101334.00;;;2.76;100.00
19600;BME280;9947;57.722;12.012;2023-02-16T00:12:16;101339.28;;;2.78;100.00
19600;BME280;9947;57.722;12.012;2023-02-16T00:15:01;101332.19;;;2.77;100.00
19600;BME280;9947;57.722;12.012;2023-02-16T00:17:36;101328.81;;;2.72;100.00
19600;BME280;9947;57.722;12.012;2023-02-16T00:20:13;101334.88;;;2.77;100.00
19600;BME280;9947;57.722;12.012;2023-02-16T00:22:47;101336.50;;;2.81;100.00
19600;BME280;9947;57.722;12.012;2023-02-16T00:25:14;101324.19;;;2.77;100.00
19600;BME280;9947;57.722;12.012;2023-02-16T00:27:47;101326.59;;;2.85;100.00
19600;BME280;9947;57.722;12.012;2023-02-16T00:30:16;101322.34;;;2.79;100.00
19600;BME280;9947;57.722;12.012;2023-02-16T00:32:51;101327.56;;;2.82;100.00
19600;BME280;9947;57.722;12.012;2023-02-16T00:35:20;101328.38;;;2.84;100.00
19600;BME280;9947;57.722;12.012;2023-02-16T00:37:54;101333.78;;;2.83;100.00
19600;BME280;9947;57.722;12.012;2023-02-16T00:40:21;101333.78;;;2.83;100.00
19600;BME280;9947;57.722;12.012;2023-02-16T00:42:54;101324.91;;;2.82;100.00
19600;BME280;9947;57.722;12.012;2023-02-16T00:45:21;101323.22;;;2.79;100.00
19600;BME280;9947;57.722;12.012;2023-02-16T00:47:55;101320.50;;;2.81;100.00
19600;BME280;9947;57.722;12.012;2023-02-16T00:50:23;101303.47;;;2.84;100.00
19600;BME280;9947;57.722;12.012;2023-02-16T00:52:58;101313.34;;;2.82;100.00
19600;BME280;9947;57.722;12.012;2023-02-16T00:55:35;101302.84;;;2.77;100.00
19600;BME280;9947;57.722;12.012;2023-02-16T00:58:14;101300.09;;;2.78;100.00
19600;BME280;9947;57.722;12.012;2023-02-16T01:00:43;101307.94;;;2.83;100.00
19600;BME280;9947;57.722;12.012;2023-02-16T01:03:22;101298.38;;;2.77;100.00
19600;BME280;9947;57.722;12.012;2023-02-16T01:05:50;101301.91;;;2.78;100.00
19600;BME280;9947;57.722;12.012;2023-02-16T01:08:38;101292.03;;;2.80;100.00
19600;BME280;9947;57.722;12.012;2023-02-16T01:11:29;101262.63;;;2.82;100.00
19600;BME280;9947;57.722;12.012;2023-02-16T01:13:57;101253.72;;;2.81;100.00
19600;BME280;9947;57.722;12.012;2023-02-16T01:16:34;101259.06;;;2.81;100.00
19600;BME280;9947;57.722;12.012;2023-02-16T01:19:04;101250.13;;;2.82;100.00
19600;BME280;9947;57.722;12.012;2023-02-16T01:21:37;101250.94;;;2.84;100.00
19600;BME280;9947;57.722;12.012;2023-02-16T01:24:05;101258.19;;;2.81;100.00
19600;BME280;9947;57.722;12.012;2023-02-16T01:26:41;101274.28;;;2.79;100.00
19600;BME280;9947;57.722;12.012;2023-02-16T01:29:13;101283.44;;;2.72;100.00
19600;BME280;9947;57.722;12.012;2023-02-16T01:31:47;101278.97;;;2.72;100.00
19600;BME280;9947;57.722;12.012;2023-02-16T01:34:15;101268.94;;;2.79;100.00
19600;BME280;9947;57.722;12.012;2023-02-16T01:36:49;101268.13;;;2.77;100.00
19600;BME280;9947;57.722;12.012;2023-02-16T01:39:18;101263.44;;;2.84;100.00
19600;BME280;9947;57.722;12.012;2023-02-16T01:42:03;101274.06;;;2.85;100.00
19600;BME280;9947;57.722;12.012;2023-02-16T01:44:39;101265.34;;;2.80;100.00
19600;BME280;9947;57.722;12.012;2023-02-16T01:47:32;101257.28;;;2.82;100.00
19600;BME280;9947;57.722;12.012;2023-02-16T01:50:16;101265.22;;;2.83;100.00
19600;BME280;9947;57.722;12.012;2023-02-16T01:52:56;101263.28;;;2.88;100.00
19600;BME280;9947;57.722;12.012;2023-02-16T01:55:27;101263.38;;;2.85;100.00
19600;BME280;9947;57.722;12.012;2023-02-16T01:58:06;101259.03;;;2.83;100.00
19600;BME280;9947;57.722;12.012;2023-02-16T02:03:43;101269.63;;;2.84;100.00
19600;BME280;9947;57.722;12.012;2023-02-16T02:06:32;101267.75;;;2.88;100.00
19600;BME280;9947;57.722;12.012;2023-02-16T02:09:09;101274.84;;;2.89;100.00
19600;BME280;9947;57.722;12.012;2023-02-16T02:11:43;101263.19;;;2.91;100.00
19600;BME280;9947;57.722;12.012;2023-02-16T02:14:21;101256.97;;;2.91;100.00
19600;BME280;9947;57.722;12.012;2023-02-16T02:16:57;101254.88;;;2.99;100.00
19600;BME280;9947;57.722;12.012;2023-02-16T02:19:25;101246.56;;;3.06;100.00
19600;BME280;9947;57.722;12.012;2023-02-16T02:22:18;101248.59;;;3.00;100.00
19600;BME280;9947;57.722;12.012;2023-02-16T02:28:33;101242.50;;;2.96;100.00
19600;BME280;9947;57.722;12.012;2023-02-16T02:31:09;101232.56;;;3.00;100.00
19600;BME280;9947;57.722;12.012;2023-02-16T02:33:55;101223.56;;;3.02;100.00
19600;BME280;9947;57.722;12.012;2023-02-16T02:36:34;101227.28;;;2.98;100.00
19600;BME280;9947;57.722;12.012;2023-02-16T02:39:23;101214.69;;;3.02;100.00
19600;BME280;9947;57.722;12.012;2023-02-16T02:42:00;101198.78;;;2.99;100.00
19600;BME280;9947;57.722;12.012;2023-02-16T02:44:41;101200.59;;;2.98;100.00
19600;BME280;9947;57.722;12.012;2023-02-16T02:47:17;101194.31;;;2.99;100.00
19600;BME280;9947;57.722;12.012;2023-02-16T02:49:49;101190.66;;;3.02;100.00
19600;BME280;9947;57.722;12.012;2023-02-16T02:52:22;101190.66;;;3.02;100.00
19600;BME280;9947;57.722;12.012;2023-02-16T02:54:51;101189.59;;;3.06;100.00
19600;BME280;9947;57.722;12.012;2023-02-16T02:57:38;101187.03;;;3.03;100.00
19600;BME280;9947;57.722;12.012;2023-02-16T03:00:36;101188.72;;;3.05;100.00
19600;BME280;9947;57.722;12.012;2023-02-16T03:03:14;101187.91;;;3.03;100.00
19600;BME280;9947;57.722;12.012;2023-02-16T03:05:47;101189.66;;;3.04;100.00
19600;BME280;9947;57.722;12.012;2023-02-16T03:08:25;101182.63;;;3.02;100.00
19600;BME280;9947;57.722;12.012;2023-02-16T03:10:55;101187.34;;;2.95;100.00
19600;BME280;9947;57.722;12.012;2023-02-16T03:13:51;101179.03;;;3.03;100.00
19600;BME280;9947;57.722;12.012;2023-02-16T03:16:30;101180.59;;;3.08;100.00
19600;BME280;9947;57.722;12.012;2023-02-16T03:19:00;101171.84;;;3.05;100.00
19600;BME280;9947;57.722;12.012;2023-02-16T03:21:54;101170.66;;;3.12;100.00
19600;BME280;9947;57.722;12.012;2023-02-16T03:24:39;101157.31;;;3.12;100.00
19600;BME280;9947;57.722;12.012;2023-02-16T03:27:34;101153.00;;;3.08;100.00
19600;BME280;9947;57.722;12.012;2023-02-16T03:30:20;101149.41;;;3.09;100.00
19600;BME280;9947;57.722;12.012;2023-02-16T03:33:02;101142.91;;;3.16;100.00
19600;BME280;9947;57.722;12.012;2023-02-16T03:35:29;101128.69;;;3.16;100.00
19600;BME280;9947;57.722;12.012;2023-02-16T03:38:10;101133.31;;;3.10;100.00
19600;BME280;9947;57.722;12.012;2023-02-16T03:40:37;101133.03;;;3.18;100.00
19600;BME280;9947;57.722;12.012;2023-02-16T03:43:12;101130.59;;;3.12;100.00
19600;BME280;9947;57.722;12.012;2023-02-16T03:45:40;101117.81;;;3.20;100.00
19600;BME280;9947;57.722;12.012;2023-02-16T03:48:17;101113.41;;;3.19;100.00
19600;BME280;9947;57.722;12.012;2023-02-16T03:50:43;101111.16;;;3.08;100.00
19600;BME280;9947;57.722;12.012;2023-02-16T03:53:17;101109.13;;;3.15;100.00
19600;BME280;9947;57.722;12.012;2023-02-16T03:55:46;101102.13;;;3.11;100.00
19600;BME280;9947;57.722;12.012;2023-02-16T03:58:21;101093.19;;;3.12;100.00
19600;BME280;9947;57.722;12.012;2023-02-16T04:00:55;101093.09;;;3.15;100.00
19600;BME280;9947;57.722;12.012;2023-02-16T04:03:29;101104.78;;;3.13;100.00
19600;BME280;9947;57.722;12.012;2023-02-16T04:05:56;101106.19;;;3.21;100.00
19600;BME280;9947;57.722;12.012;2023-02-16T04:08:30;101099.97;;;3.21;100.00
19600;BME280;9947;57.722;12.012;2023-02-16T04:10:57;101094.78;;;3.18;100.00
19600;BME280;9947;57.722;12.012;2023-02-16T04:13:52;101102.84;;;3.16;100.00
19600;BME280;9947;57.722;12.012;2023-02-16T04:16:24;101104.59;;;3.17;100.00
19600;BME280;9947;57.722;12.012;2023-02-16T04:18:58;101101.47;;;3.06;100.00
19600;BME280;9947;57.722;12.012;2023-02-16T04:21:32;101100.03;;;3.19;100.00
19600;BME280;9947;57.722;12.012;2023-02-16T04:24:07;101102.72;;;3.19;100.00
19600;BME280;9947;57.722;12.012;2023-02-16T04:26:41;101098.25;;;3.20;100.00
19600;BME280;9947;57.722;12.012;2023-02-16T04:29:16;101114.16;;;3.23;100.00
19600;BME280;9947;57.722;12.012;2023-02-16T04:31:49;101117.94;;;3.17;100.00
19600;BME280;9947;57.722;12.012;2023-02-16T04:34:17;101113.28;;;3.22;100.00
19600;BME280;9947;57.722;12.012;2023-02-16T04:36:51;101112.16;;;3.28;100.00
19600;BME280;9947;57.722;12.012;2023-02-16T04:39:18;101107.75;;;3.27;100.00
19600;BME280;9947;57.722;12.012;2023-02-16T04:41:51;101108.75;;;3.24;100.00
19600;BME280;9947;57.722;12.012;2023-02-16T04:44:25;101100.13;;;3.18;100.00
19600;BME280;9947;57.722;12.012;2023-02-16T04:47:02;101098.13;;;3.23;100.00
19600;BME280;9947;57.722;12.012;2023-02-16T04:49:36;101097.19;;;3.24;100.00
19600;BME280;9947;57.722;12.012;2023-02-16T04:52:10;101100.97;;;3.18;100.00
19600;BME280;9947;57.722;12.012;2023-02-16T04:54:40;101094.78;;;3.18;100.00
19600;BME280;9947;57.722;12.012;2023-02-16T04:57:15;101097.25;;;3.22;100.00
19600;BME280;9947;57.722;12.012;2023-02-16T04:59:42;101094.50;;;3.24;100.00
19600;BME280;9947;57.722;12.012;2023-02-16T05:02:15;101089.22;;;3.22;100.00
19600;BME280;9947;57.722;12.012;2023-02-16T05:04:52;101100.66;;;3.26;100.00
19600;BME280;9947;57.722;12.012;2023-02-16T05:07:26;101103.41;;;3.24;100.00
19600;BME280;9947;57.722;12.012;2023-02-16T05:09:53;101113.09;;;3.27;100.00
19600;BME280;9947;57.722;12.012;2023-02-16T05:12:26;101103.41;;;3.24;100.00
19600;BME280;9947;57.722;12.012;2023-02-16T05:15:10;101102.59;;;3.22;100.00
19600;BME280;9947;57.722;12.012;2023-02-16T05:17:49;101101.66;;;3.23;100.00
19600;BME280;9947;57.722;12.012;2023-02-16T05:20:17;101099.78;;;3.25;100.00
19600;BME280;9947;57.722;12.012;2023-02-16T05:23:11;101100.72;;;3.24;100.00
19600;BME280;9947;57.722;12.012;2023-02-16T05:25:38;101097.00;;;3.28;100.00
19600;BME280;9947;57.722;12.012;2023-02-16T05:28:12;101095.13;;;3.30;100.00
19600;BME280;9947;57.722;12.012;2023-02-16T05:30:48;101099.41;;;3.34;100.00
19600;BME280;9947;57.722;12.012;2023-02-16T05:33:23;101095.81;;;3.35;100.00
19600;BME280;9947;57.722;12.012;2023-02-16T05:35:54;101088.72;;;3.34;100.00
19600;BME280;9947;57.722;12.012;2023-02-16T05:38:28;101087.03;;;3.32;100.00
19600;BME280;9947;57.722;12.012;2023-02-16T05:40:55;101090.66;;;3.31;100.00
19600;BME280;9947;57.722;12.012;2023-02-16T05:43:28;101096.72;;;3.34;100.00
19600;BME280;9947;57.722;12.012;2023-02-16T05:45:55;101096.00;;;3.31;100.00
19600;BME280;9947;57.722;12.012;2023-02-16T05:48:28;101102.22;;;3.31;100.00
19600;BME280;9947;57.722;12.012;2023-02-16T05:50:56;101098.66;;;3.31;100.00
19600;BME280;9947;57.722;12.012;2023-02-16T05:53:30;101092.25;;;3.35;100.00
19600;BME280;9947;57.722;12.012;2023-02-16T05:55:57;101093.25;;;3.32;100.00
19600;BME280;9947;57.722;12.012;2023-02-16T05:58:30;101092.59;;;3.27;100.00
19600;BME280;9947;57.722;12.012;2023-02-16T06:00:59;101088.09;;;3.28;100.00
19600;BME280;9947;57.722;12.012;2023-02-16T06:03:40;101087.38;;;3.24;100.00
19600;BME280;9947;57.722;12.012;2023-02-16T06:06:14;101087.25;;;3.27;100.00
19600;BME280;9947;57.722;12.012;2023-02-16T06:08:48;101083.75;;;3.25;100.00
19600;BME280;9947;57.722;12.012;2023-02-16T06:11:21;101093.06;;;3.37;100.00
19600;BME280;9947;57.722;12.012;2023-02-16T06:14:05;101087.16;;;3.29;100.00
19600;BME280;9947;57.722;12.012;2023-02-16T06:16:41;101078.47;;;3.24;100.00
19600;BME280;9947;57.722;12.012;2023-02-16T06:19:08;101081.97;;;3.26;100.00
19600;BME280;9947;57.722;12.012;2023-02-16T06:21:44;101083.75;;;3.25;100.00
19600;BME280;9947;57.722;12.012;2023-02-16T06:24:12;101082.69;;;3.29;100.00
19600;BME280;9947;57.722;12.012;2023-02-16T06:26:45;101085.56;;;3.25;100.00
19600;BME280;9947;57.722;12.012;2023-02-16T06:29:12;101081.09;;;3.25;100.00
19600;BME280;9947;57.722;12.012;2023-02-16T06:31:47;101089.31;;;3.21;100.00
19600;BME280;9947;57.722;12.012;2023-02-16T06:34:14;101089.03;;;3.27;100.00
19600;BME280;9947;57.722;12.012;2023-02-16T06:36:48;101082.69;;;3.29;100.00
19600;BME280;9947;57.722;12.012;2023-02-16T06:39:18;101083.69;;;3.27;100.00
19600;BME280;9947;57.722;12.012;2023-02-16T06:41:51;101080.81;;;3.31;100.00
19600;BME280;9947;57.722;12.012;2023-02-16T06:44:24;101077.34;;;3.29;100.00
19600;BME280;9947;57.722;12.012;2023-02-16T06:46:57;101072.13;;;3.26;100.00
19600;BME280;9947;57.722;12.012;2023-02-16T06:49:31;101079.09;;;3.30;100.00
19600;BME280;9947;57.722;12.012;2023-02-16T06:52:06;101073.56;;;3.35;100.00
19600;BME280;9947;57.722;12.012;2023-02-16T06:54:43;101070.28;;;3.28;100.00
19600;BME280;9947;57.722;12.012;2023-02-16T06:57:17;101077.09;;;3.35;100.00
19600;BME280;9947;57.722;12.012;2023-02-16T06:59:44;101073.56;;;3.35;100.00
19600;BME280;9947;57.722;12.012;2023-02-16T07:02:24;101075.34;;;3.34;100.00
19600;BME280;9947;57.722;12.012;2023-02-16T07:04:53;101080.63;;;3.36;100.00
19600;BME280;9947;57.722;12.012;2023-02-16T07:07:28;101082.50;;;3.34;100.00
19600;BME280;9947;57.722;12.012;2023-02-16T07:09:55;101087.56;;;3.42;100.00
19600;BME280;9947;57.722;12.012;2023-02-16T07:12:29;101084.19;;;3.36;100.00
19600;BME280;9947;57.722;12.012;2023-02-16T07:14:56;101083.88;;;3.44;100.00
19600;BME280;9947;57.722;12.012;2023-02-16T07:17:37;101081.22;;;3.44;100.00
19600;BME280;9947;57.722;12.012;2023-02-16T07:20:05;101081.06;;;3.47;100.00
19600;BME280;9947;57.722;12.012;2023-02-16T07:22:39;101078.47;;;3.46;100.00
19600;BME280;9947;57.722;12.012;2023-02-16T07:25:07;101082.53;;;3.54;100.00
19600;BME280;9947;57.722;12.012;2023-02-16T07:27:42;101084.34;;;3.54;100.00
19600;BME280;9947;57.722;12.012;2023-02-16T07:30:15;101077.06;;;3.57;100.00
19600;BME280;9947;57.722;12.012;2023-02-16T07:32:48;101069.13;;;3.56;100.00
19600;BME280;9947;57.722;12.012;2023-02-16T07:35:15;101075.34;;;3.56;100.00
19600;BME280;9947;57.722;12.012;2023-02-16T07:37:53;101074.59;;;3.53;100.00
19600;BME280;9947;57.722;12.012;2023-02-16T07:40:20;101059.28;;;3.56;100.00
19600;BME280;9947;57.722;12.012;2023-02-16T07:42:58;101070.13;;;3.53;100.00
19600;BME280;9947;57.722;12.012;2023-02-16T07:45:25;101072.59;;;3.58;100.00
19600;BME280;9947;57.722;12.012;2023-02-16T07:47:59;101073.53;;;3.57;100.00
19600;BME280;9947;57.722;12.012;2023-02-16T07:50:26;101070.56;;;3.64;100.00
19600;BME280;9947;57.722;12.012;2023-02-16T07:53:02;101074.69;;;3.71;100.00
19600;BME280;9947;57.722;12.012;2023-02-16T07:55:38;101079.09;;;3.72;100.00
19600;BME280;9947;57.722;12.012;2023-02-16T07:58:12;101078.97;;;3.76;100.00
19600;BME280;9947;57.722;12.012;2023-02-16T08:00:52;101075.56;;;3.72;100.00
19600;BME280;9947;57.722;12.012;2023-02-16T08:03:25;101079.91;;;3.75;100.00
19600;BME280;9947;57.722;12.012;2023-02-16T08:05:52;101071.81;;;3.76;100.00
19600;BME280;9947;57.722;12.012;2023-02-16T08:08:26;101083.03;;;3.84;100.00
19600;BME280;9947;57.722;12.012;2023-02-16T08:10:54;101083.44;;;3.75;100.00
19600;BME280;9947;57.722;12.012;2023-02-16T08:13:27;101078.84;;;3.79;100.00
19600;BME280;9947;57.722;12.012;2023-02-16T08:16:01;101081.16;;;3.86;100.00
19600;BME280;9947;57.722;12.012;2023-02-16T08:18:34;101093.94;;;3.80;100.00
19600;BME280;9947;57.722;12.012;2023-02-16T08:21:06;101095.53;;;3.84;100.00
19600;BME280;9947;57.722;12.012;2023-02-16T08:23:46;101084.56;;;3.90;100.00
19600;BME280;9947;57.722;12.012;2023-02-16T08:26:18;101085.34;;;3.93;100.00
19600;BME280;9947;57.722;12.012;2023-02-16T08:28:55;101092.41;;;3.94;100.00
19600;BME280;9947;57.722;12.012;2023-02-16T08:31:36;101088.81;;;3.95;100.00
19600;BME280;9947;57.722;12.012;2023-02-16T08:34:13;101091.47;;;3.95;100.00
19600;BME280;9947;57.722;12.012;2023-02-16T08:36:51;101087.53;;;4.04;100.00
19600;BME280;9947;57.722;12.012;2023-02-16T08:39:23;101083.31;;;3.98;100.00
19600;BME280;9947;57.722;12.012;2023-02-16T08:41:57;101083.63;;;4.11;100.00
19600;BME280;9947;57.722;12.012;2023-02-16T08:44:26;101081.97;;;4.09;100.00
19600;BME280;9947;57.722;12.012;2023-02-16T08:46:59;101088.25;;;4.08;100.00
19600;BME280;9947;57.722;12.012;2023-02-16T08:49:29;101087.88;;;4.17;100.00
19600;BME280;9947;57.722;12.012;2023-02-16T08:51:57;101092.66;;;4.09;100.00
19600;BME280;9947;57.722;12.012;2023-02-16T08:54:33;101092.00;;;4.24;100.00
19600;BME280;9947;57.722;12.012;2023-02-16T08:57:06;101087.09;;;4.13;100.00
19600;BME280;9947;57.722;12.012;2023-02-16T08:59:34;101096.00;;;4.14;100.00
19600;BME280;9947;57.722;12.012;2023-02-16T09:02:09;101095.34;;;4.09;100.00
19600;BME280;9947;57.722;12.012;2023-02-16T09:04:36;101093.25;;;4.15;100.00
19600;BME280;9947;57.722;12.012;2023-02-16T09:07:09;101097.66;;;4.16;100.00
19600;BME280;9947;57.722;12.012;2023-02-16T09:09:37;101087.78;;;4.18;100.00
19600;BME280;9947;57.722;12.012;2023-02-16T09:12:11;101081.91;;;4.10;100.00
19600;BME280;9947;57.722;12.012;2023-02-16T09:14:38;101081.22;;;4.25;100.00
19600;BME280;9947;57.722;12.012;2023-02-16T09:17:12;101070.22;;;4.31;100.00
19600;BME280;9947;57.722;12.012;2023-02-16T09:19:45;101073.50;;;4.38;100.00
19600;BME280;9947;57.722;12.012;2023-02-16T09:22:18;101076.34;;;4.54;100.00
19600;BME280;9947;57.722;12.012;2023-02-16T09:24:53;101083.69;;;4.69;100.00
19600;BME280;9947;57.722;12.012;2023-02-16T09:27:36;101073.00;;;4.68;100.00
19600;BME280;9947;57.722;12.012;2023-02-16T09:30:06;101079.13;;;4.71;100.00
19600;BME280;9947;57.722;12.012;2023-02-16T09:32:40;101073.31;;;4.80;100.00
19600;BME280;9947;57.722;12.012;2023-02-16T09:35:08;101078.38;;;4.86;100.00
19600;BME280;9947;57.722;12.012;2023-02-16T09:37:43;101083.34;;;4.94;100.00
19600;BME280;9947;57.722;12.012;2023-02-16T09:40:13;101087.19;;;4.88;100.00
19600;BME280;9947;57.722;12.012;2023-02-16T09:42:54;101083.34;;;4.94;100.00
19600;BME280;9947;57.722;12.012;2023-02-16T09:45:38;101086.97;;;4.93;100.00
19600;BME280;9947;57.722;12.012;2023-02-16T09:48:33;101089.66;;;4.93;100.00
19600;BME280;9947;57.722;12.012;2023-02-16T09:51:02;101085.13;;;4.95;100.00
19600;BME280;9947;57.722;12.012;2023-02-16T09:53:39;101081.34;;;4.99;100.00
19600;BME280;9947;57.722;12.012;2023-02-16T09:56:26;101083.34;;;4.94;100.00
19600;BME280;9947;57.722;12.012;2023-02-16T09:59:04;101093.81;;;4.81;100.00
19600;BME280;9947;57.722;12.012;2023-02-16T10:01:40;101091.91;;;5.02;100.00
19600;BME280;9947;57.722;12.012;2023-02-16T10:04:30;101084.28;;;5.31;100.00
19600;BME280;9947;57.722;12.012;2023-02-16T10:07:14;101094.84;;;5.15;100.00
19600;BME280;9947;57.722;12.012;2023-02-16T10:09:49;101093.56;;;5.23;100.00
19600;BME280;9947;57.722;12.012;2023-02-16T10:12:30;101100.44;;;5.10;100.00
19600;BME280;9947;57.722;12.012;2023-02-16T10:15:06;101099.66;;;5.08;100.00
19600;BME280;9947;57.722;12.012;2023-02-16T10:17:44;101097.31;;;5.19;100.00
19600;BME280;9947;57.722;12.012;2023-02-16T10:20:23;101098.72;;;5.09;100.00
19600;BME280;9947;57.722;12.012;2023-02-16T10:23:03;101108.34;;;5.13;100.00
19600;BME280;9947;57.722;12.012;2023-02-16T10:25:44;101101.69;;;5.03;100.00
19600;BME280;9947;57.722;12.012;2023-02-16T10:28:20;101100.81;;;5.03;100.00
19600;BME280;9947;57.722;12.012;2023-02-16T10:31:00;101099.81;;;5.05;100.00
19600;BME280;9947;57.722;12.012;2023-02-16T10:33:40;101114.28;;;5.01;100.00
19600;BME280;9947;57.722;12.012;2023-02-16T10:36:14;101104.75;;;4.95;100.00
19600;BME280;9947;57.722;12.012;2023-02-16T10:38:53;101103.41;;;4.85;100.00
19600;BME280;9947;57.722;12.012;2023-02-16T10:41:28;101106.03;;;4.87;100.00
19600;BME280;9947;57.722;12.012;2023-02-16T10:44:10;101103.50;;;5.03;100.00
19600;BME280;9947;57.722;12.012;2023-02-16T10:46:41;101098.13;;;5.03;100.00
19600;BME280;9947;57.722;12.012;2023-02-16T10:49:16;101104.63;;;5.16;100.00
19600;BME280;9947;57.722;12.012;2023-02-16T10:51:46;101095.00;;;5.12;100.00
19600;BME280;9947;57.722;12.012;2023-02-16T10:54:24;101092.47;;;5.28;100.00
19600;BME280;9947;57.722;12.012;2023-02-16T10:57:05;101098.13;;;5.21;100.00
19600;BME280;9947;57.722;12.012;2023-02-16T10:59:44;101099.16;;;5.36;100.00
19600;BME280;9947;57.722;12.012;2023-02-16T11:02:19;101090.66;;;5.28;100.00
19600;BME280;9947;57.722;12.012;2023-02-16T11:04:50;101086.66;;;5.18;100.00
19600;BME280;9947;57.722;12.012;2023-02-16T11:07:26;101091.84;;;5.40;100.00
19600;BME280;9947;57.722;12.012;2023-02-16T11:09:56;101075.69;;;5.41;100.00
19600;BME280;9947;57.722;12.012;2023-02-16T11:12:31;101086.13;;;5.47;100.00
19600;BME280;9947;57.722;12.012;2023-02-16T11:15:03;101081.88;;;5.61;100.00
19600;BME280;9947;57.722;12.012;2023-02-16T11:17:49;101086.34;;;5.60;100.00
19600;BME280;9947;57.722;12.012;2023-02-16T11:20:25;101088.72;;;5.66;100.00
19600;BME280;9947;57.722;12.012;2023-02-16T11:23:14;101086.63;;;5.73;100.00
19600;BME280;9947;57.722;12.012;2023-02-16T11:25:54;101092.50;;;5.62;100.00
19600;BME280;9947;57.722;12.012;2023-02-16T11:28:31;101100.25;;;5.68;100.00
19600;BME280;9947;57.722;12.012;2023-02-16T11:31:04;101098.81;;;5.61;100.00
19600;BME280;9947;57.722;12.012;2023-02-16T11:33:54;101100.25;;;5.68;100.00
19600;BME280;9947;57.722;12.012;2023-02-16T11:36:32;101106.31;;;5.72;100.00
19600;BME280;9947;57.722;12.012;2023-02-16T11:39:14;101101.34;;;5.64;100.00
19600;BME280;9947;57.722;12.012;2023-02-16T11:41:51;101092.19;;;5.68;100.00
19600;BME280;9947;57.722;12.012;2023-02-16T11:44:25;101105.59;;;5.68;100.00
19600;BME280;9947;57.722;12.012;2023-02-16T11:47:02;101104.50;;;5.55;100.00
19600;BME280;9947;57.722;12.012;2023-02-16T11:49:31;101104.34;;;5.58;100.00
19600;BME280;9947;57.722;12.012;2023-02-16T11:52:25;101100.25;;;5.68;100.00
19600;BME280;9947;57.722;12.012;2023-02-16T11:55:02;101100.03;;;5.73;100.00
19600;BME280;9947;57.722;12.012;2023-02-16T11:57:35;101101.50;;;5.61;100.00
19600;BME280;9947;57.722;12.012;2023-02-16T12:00:14;101098.13;;;5.57;100.00
19600;BME280;9947;57.722;12.012;2023-02-16T12:03:08;101101.19;;;5.50;100.00
19600;BME280;9947;57.722;12.012;2023-02-16T12:05:56;101095.34;;;5.59;100.00
19600;BME280;9947;57.722;12.012;2023-02-16T12:08:50;101097.56;;;5.51;100.00
19600;BME280;9947;57.722;12.012;2023-02-16T12:11:36;101090.47;;;5.50;100.00
19600;BME280;9947;57.722;12.012;2023-02-16T12:14:17;101093.34;;;5.45;100.00
19600;BME280;9947;57.722;12.012;2023-02-16T12:17:01;101094.38;;;5.43;100.00
19600;BME280;9947;57.722;12.012;2023-02-16T12:19:47;101089.47;;;5.34;100.00
19600;BME280;9947;57.722;12.012;2023-02-16T12:22:32;101098.16;;;5.39;100.00
19600;BME280;9947;57.722;12.012;2023-02-16T12:25:08;101093.50;;;5.42;100.00
19600;BME280;9947;57.722;12.012;2023-02-16T12:27:54;101092.47;;;5.28;100.00
19600;BME280;9947;57.722;12.012;2023-02-16T12:30:35;101094.28;;;5.27;100.00
19600;BME280;9947;57.722;12.012;2023-02-16T12:33:24;101101.63;;;5.41;100.00
19600;BME280;9947;57.722;12.012;2023-02-16T12:36:06;101092.63;;;5.42;100.00
19600;BME280;9947;57.722;12.012;2023-02-16T12:38:49;101091.38;;;5.32;100.00
19600;BME280;9947;57.722;12.012;2023-02-16T12:41:29;101079.81;;;5.48;100.00
19600;BME280;9947;57.722;12.012;2023-02-16T12:44:13;101082.63;;;5.45;100.00
19600;BME280;9947;57.722;12.012;2023-02-16T12:46:54;101082.81;;;5.60;100.00
19600;BME280;9947;57.722;12.012;2023-02-16T12:49:26;101074.94;;;5.56;100.00
19600;BME280;9947;57.722;12.012;2023-02-16T12:52:09;101082.50;;;5.48;100.00
19600;BME280;9947;57.722;12.012;2023-02-16T12:54:47;101076.19;;;5.49;100.00
19600;BME280;9947;57.722;12.012;2023-02-16T12:57:25;101087.63;;;5.53;100.00
19600;BME280;9947;57.722;12.012;2023-02-16T13:00:02;101088.13;;;5.42;100.00
19600;BME280;9947;57.722;12.012;2023-02-16T13:02:40;101088.38;;;5.38;100.00
19600;BME280;9947;57.722;12.012;2023-02-16T13:05:11;101088.91;;;5.27;100.00
19600;BME280;9947;57.722;12.012;2023-02-16T13:07:49;101085.44;;;5.25;100.00
19600;BME280;9947;57.722;12.012;2023-02-16T13:10:22;101077.66;;;5.38;100.00
19600;BME280;9947;57.722;12.012;2023-02-16T13:13:00;101073.16;;;5.38;100.00
19600;BME280;9947;57.722;12.012;2023-02-16T13:15:33;101068.81;;;5.36;100.00
19600;BME280;9947;57.722;12.012;2023-02-16T13:18:17;101075.16;;;5.52;100.00
19600;BME280;9947;57.722;12.012;2023-02-16T13:20:49;101065.31;;;5.52;100.00
19600;BME280;9947;57.722;12.012;2023-02-16T13:23:41;101075.00;;;5.72;100.00
19600;BME280;9947;57.722;12.012;2023-02-16T13:26:38;101058.69;;;5.94;100.00
19600;BME280;9947;57.722;12.012;2023-02-16T13:29:45;101057.75;;;5.95;100.00
19600;BME280;9947;57.722;12.012;2023-02-16T13:32:53;101061.91;;;5.83;100.00
19600;BME280;9947;57.722;12.012;2023-02-16T13:35:35;101066.44;;;6.00;100.00
19600;BME280;9947;57.722;12.012;2023-02-16T13:38:53;101067.19;;;5.85;100.00
19600;BME280;9947;57.722;12.012;2023-02-16T13:41:55;101076.44;;;5.79;100.00
19600;BME280;9947;57.722;12.012;2023-02-16T13:44:40;101070.44;;;5.74;100.00